Latest Weather Observations for Thredbo Top Station

IDN60801

Issued at 5:32 am EST Friday 29 May 2015 (issued every 30 minutes, with the page automatically refreshed every 10 minutes)

About weather observations | Map of weather stations | Latest weather observations for NSW | Other Formats
Station Details ID: 071032 Name: THREDBO AWS Lat: -36.49 Lon: 148.29 Height: 1957.0 m
Data from the previous 72 hours. | See also: Recent months at Thredbo Top Station
Date/Time
EST
Temp
°C
App
Temp
°C
Dew
Point
Rel
Hum
%
Delta-T
°C
Wind Press
QNH
hPa
Press
MSL
hPa
Rain
since 9 am
mm
Dir
 
Spd
km/h
Gust
km/h
Spd
kts
Gust
kts
29/05:30am 1.2 -9.5 0.3 94 0.4 NW 46 72 25 39 1019.5 1021.7 27.0
29/05:00am 1.2 -8.0 1.1 99 0.0 NW 39 59 21 32 1019.5 1021.7 27.0
29/04:30am 1.2 -6.9 0.8 97 0.2 NW 33 56 18 30 1019.2 1021.4 27.0
29/04:00am 1.5 -7.7 1.4 99 0.0 NW 39 65 21 35 1019.0 1021.2 27.0
29/03:30am 1.9 -8.5 1.8 99 0.0 NW 46 65 25 35 1018.7 1020.8 27.0
29/03:14am 1.9 -9.7 1.8 99 0.0 NNW 52 89 28 48 1018.4 1020.6 27.0
29/03:00am 1.8 -8.3 1.7 99 0.0 NNW 44 70 24 38 1018.6 1020.7 26.4
29/02:30am 1.9 -7.2 1.8 99 0.0 NW 39 61 21 33 1018.7 1020.8 26.4
29/02:00am 2.1 -6.2 2.0 99 0.0 NW 35 59 19 32 1018.7 1020.8 26.4
29/01:30am 2.0 -6.0 1.9 99 0.0 NW 33 52 18 28 1018.9 1021.1 26.4
29/01:01am 1.9 -6.1 1.8 99 0.0 NW 33 54 18 29 1018.9 1021.1 26.4
29/01:00am 1.9 -6.1 1.8 99 0.0 NW 33 46 18 25 1018.8 1020.9 26.4
29/12:47am 2.2 -4.8 2.1 99 0.0 WNW 28 46 15 25 1018.7 1020.8 26.4
29/12:30am 2.0 -4.2 1.9 99 0.0 WNW 24 37 13 20 1018.7 1020.8 26.2
29/12:00am 1.7 -7.1 1.6 99 0.0 WNW 37 65 20 35 1018.6 1020.7 25.4
 
Date/Time
EST
Temp
°C
App
Temp
°C
Dew
Point
Rel
Hum
%
Delta-T
°C
Wind Press
QNH
hPa
Press
MSL
hPa
Rain
since 9 am
mm
Dir
 
Spd
km/h
Gust
km/h
Spd
kts
Gust
kts
28/11:57pm 1.8 -6.6 1.7 99 0.0 WNW 35 65 19 35 1018.6 1020.7 25.0
28/11:55pm 2.2 -5.7 2.1 99 0.0 WNW 33 50 18 27 1018.3 1020.5 24.8
28/11:30pm 3.2 -6.1 3.1 99 0.0 NW 41 67 22 36 1018.6 1020.7 23.4
28/11:04pm 2.4 -6.6 2.3 99 0.0 NNW 39 56 21 30 1018.9 1021.1 23.4
28/11:00pm 2.3 -7.1 2.2 99 0.0 NW 41 56 22 30 1019.1 1021.3 23.2
28/10:30pm 2.6 -9.6 2.5 99 0.0 NNW 56 83 30 45 1018.8 1020.9 20.6
28/10:00pm 3.4 -9.3 3.3 99 0.0 NNW 59 80 32 43 1018.9 1021.1 19.2
28/09:30pm 3.1 -7.9 3.0 99 0.0 NNW 50 72 27 39 1018.8 1020.9 17.8
28/09:00pm 2.9 -7.0 2.8 99 0.0 NNW 44 63 24 34 1019.4 1021.5 16.8
28/08:36pm 2.4 -8.3 2.3 99 0.0 NNW 48 67 26 36 1019.4 1021.5 16.6
28/08:30pm 2.4 -9.1 2.3 99 0.0 NNW 52 67 28 36 1019.5 1021.7 16.2
28/08:02pm 1.9 -10.7 1.5 97 0.2 NNW 57 78 31 42 1019.4 1021.5 11.8
28/08:00pm 2.4 -10.1 2.3 99 0.0 NNW 57 74 31 40 1019.2 1021.4 11.6
28/07:30pm 2.7 -12.5 2.6 99 0.0 NNW 72 95 39 51 1018.4 1020.6 8.0
28/07:15pm 2.3 -13.0 2.2 99 0.0 NNW 72 91 39 49 1018.7 1020.8 6.6
28/07:00pm 2.3 -14.5 2.2 99 0.0 NNW 80 95 43 51 1018.0 1020.1 5.8
28/06:30pm 1.9 -15.1 1.3 96 0.3 NNW 80 100 43 54 1018.1 1020.2 5.2
28/06:11pm 2.5 -14.4 1.6 94 0.4 NNW 80 98 43 53 1018.3 1020.5 4.6
28/06:00pm 2.4 -13.7 2.1 98 0.1 NNW 76 91 41 49 1018.3 1020.5 4.6
28/05:45pm 2.3 -11.7 2.2 99 0.0 NNW 65 83 35 45 1018.1 1020.2 4.6
28/05:30pm 2.5 -12.5 1.6 94 0.4 NNW 70 85 38 46 1018.1 1020.2 4.6
28/05:08pm 2.3 -11.7 2.2 99 0.0 NNW 65 83 35 45 1017.6 1019.8 4.6
28/05:00pm 2.3 -12.1 2.0 98 0.1 NNW 67 82 36 44 1017.6 1019.8 4.6
28/04:44pm 2.8 -11.7 1.2 89 0.7 NNW 67 85 36 46 1018.0 1020.1 4.6
28/04:30pm 2.3 -10.2 2.0 98 0.1 NNW 57 74 31 40 1017.9 1020.0 4.6
28/04:06pm 2.5 -12.0 1.6 94 0.4 NNW 67 91 36 49 1018.2 1020.4 4.6
28/04:00pm 2.2 -11.4 2.1 99 0.0 NNW 63 76 34 41 1018.3 1020.5 4.6
28/03:30pm 2.3 -12.1 1.7 96 0.3 NNW 67 87 36 47 1018.2 1020.4 4.6
28/03:00pm 2.3 -10.6 1.9 97 0.2 NW 59 89 32 48 1018.4 1020.6 4.6
28/02:30pm 2.3 -11.0 1.9 97 0.2 NW 61 87 33 47 1018.4 1020.6 4.6
28/02:00pm 2.2 -10.7 2.1 99 0.0 NW 59 83 32 45 1018.9 1021.1 4.6
28/01:30pm 2.2 -9.7 2.1 99 0.0 NW 54 74 29 40 1019.2 1021.4 4.6
28/01:02pm 2.1 -10.2 2.0 99 0.0 NW 56 74 30 40 1019.8 1022.0 4.6
28/01:00pm 2.2 -9.7 2.1 99 0.0 NW 54 69 29 37 1019.7 1021.9 4.6
28/12:34pm 1.4 -9.1 1.3 99 0.0 NW 46 74 25 40 1020.3 1022.5 4.2
28/12:30pm 1.2 -9.0 1.1 99 0.0 NW 44 61 24 33 1020.3 1022.5 4.0
28/12:00pm 2.2 -7.8 2.1 99 0.0 NNW 44 63 24 34 1020.6 1022.8 1.8
28/11:30am 2.2 -6.1 2.1 99 0.0 NW 35 54 19 29 1021.0 1023.2 0.2
28/11:00am 2.0 -9.6 1.9 99 0.0 NNW 52 74 28 40 1021.9 1024.1 0.2
28/10:33am 2.3 -10.5 2.2 99 0.0 NNW 59 80 32 43 1021.8 1024.0 0.2
28/10:30am 2.2 -10.7 2.1 99 0.0 NNW 59 74 32 40 - - 0.2
28/10:14am 2.2 -9.7 2.1 99 0.0 NNW 54 74 29 40 - - 0.2
28/10:00am 2.1 -10.4 2.0 99 0.0 NNW 57 72 31 39 - - 0.2
28/09:30am 1.8 -9.4 1.7 99 0.0 NNW 50 74 27 40 - - 0.0
28/09:03am 1.8 -9.0 1.7 99 0.0 NNW 48 67 26 36 - - 0.0
28/09:00am 1.8 -9.4 1.7 99 0.0 NNW 50 67 27 36 - - 7.0
28/08:30am 1.8 -10.2 1.7 99 0.0 NNW 54 78 29 42 - - 7.0
28/08:21am 1.6 -10.4 1.5 99 0.0 NNW 54 78 29 42 - - 7.0
28/08:00am 1.7 -7.4 1.6 99 0.0 NNW 39 61 21 33 - - 6.6
28/07:33am 1.6 -8.9 1.5 99 0.0 NNW 46 65 25 35 - - 6.6
28/07:30am 1.6 -9.3 1.5 99 0.0 NNW 48 65 26 35 - - 6.6
28/07:00am 1.4 -7.0 1.3 99 0.0 NW 35 56 19 30 - - 6.6
28/06:50am 1.7 -6.1 1.6 99 0.0 NW 32 54 17 29 - - 6.6
28/06:30am 1.8 -5.6 1.7 99 0.0 NNW 30 46 16 25 - - 6.6
28/06:00am 2.0 -5.0 1.9 99 0.0 NW 28 41 15 22 - - 6.6
28/05:37am 2.0 -7.5 1.9 99 0.0 NW 41 59 22 32 1020.7 1023.0 6.6
28/05:30am 2.0 -8.4 1.9 99 0.0 NW 46 59 25 32 1020.5 1022.7 6.6
28/05:00am 1.8 -7.3 1.7 99 0.0 NW 39 57 21 31 1020.5 1022.7 6.6
28/04:30am 1.8 -7.7 1.7 99 0.0 NW 41 59 22 32 1021.0 1023.2 6.4
28/04:00am 2.1 -6.6 2.0 99 0.0 NW 37 63 20 34 1020.7 1023.0 6.4
28/03:32am 2.1 -6.6 2.0 99 0.0 NW 37 56 20 30 1020.7 1023.0 6.4
28/03:30am 2.1 -7.0 2.0 99 0.0 NW 39 56 21 30 1020.7 1023.0 6.4
28/03:00am 2.1 -6.2 2.0 99 0.0 NW 35 59 19 32 1021.0 1023.2 6.4
28/02:30am 2.3 -7.5 2.2 99 0.0 NW 43 61 23 33 1021.3 1023.5 6.4
28/02:00am 2.1 -6.6 2.0 99 0.0 NW 37 56 20 30 1021.4 1023.7 6.4
28/01:30am 2.3 -6.4 2.2 99 0.0 NW 37 57 20 31 1021.5 1023.8 6.4
28/01:00am 2.3 -7.1 2.2 99 0.0 NW 41 61 22 33 1021.6 1023.9 6.4
28/12:34am 2.2 -7.2 2.1 99 0.0 NW 41 63 22 34 1021.9 1024.1 6.4
28/12:30am 2.1 -7.7 2.0 99 0.0 NW 43 57 23 31 1021.8 1024.0 6.4
28/12:09am 1.6 -7.6 1.5 99 0.0 NW 39 59 21 32 1022.1 1024.4 6.2
28/12:00am 2.1 -6.2 2.0 99 0.0 NW 35 50 19 27 1022.1 1024.4 5.6
 
Date/Time
EST
Temp
°C
App
Temp
°C
Dew
Point
Rel
Hum
%
Delta-T
°C
Wind Press
QNH
hPa
Press
MSL
hPa
Rain
since 9 am
mm
Dir
 
Spd
km/h
Gust
km/h
Spd
kts
Gust
kts
27/11:32pm 2.3 -5.0 2.2 99 0.0 WNW 30 48 16 26 1022.4 1024.7 5.6
27/11:30pm 2.3 -5.4 2.2 99 0.0 NW 32 48 17 26 1022.4 1024.7 5.6
27/11:10pm 2.2 -6.1 2.1 99 0.0 NW 35 54 19 29 1022.6 1024.8 5.6
27/11:00pm 2.1 -6.6 2.0 99 0.0 NW 37 48 20 26 1022.7 1025.0 5.4
27/10:30pm 2.2 -6.9 2.1 99 0.0 NW 39 54 21 29 1022.4 1024.7 4.8
27/10:00pm 2.4 -7.4 2.3 99 0.0 NW 43 61 23 33 1022.4 1024.7 4.6
27/09:30pm 2.2 -6.9 2.1 99 0.0 NW 39 56 21 30 1022.6 1024.8 4.6
27/09:05pm 2.1 -7.9 2.0 99 0.0 NW 44 63 24 34 1022.6 1024.8 4.6
27/09:00pm 2.0 -8.4 1.9 99 0.0 NW 46 63 25 34 1022.4 1024.7 4.6
27/08:30pm 2.1 -8.3 2.0 99 0.0 NW 46 59 25 32 1022.2 1024.5 4.4
27/08:08pm 2.0 -7.9 1.9 99 0.0 NW 43 61 23 33 1022.2 1024.5 4.4
27/08:00pm 1.9 -8.5 1.8 99 0.0 NW 46 61 25 33 1022.2 1024.5 4.4
27/07:37pm 2.0 -8.0 1.9 99 0.0 NW 44 63 24 34 1022.3 1024.6 4.4
27/07:30pm 2.1 -9.1 2.0 99 0.0 NW 50 65 27 35 1022.4 1024.7 4.2
27/07:19pm 2.0 -8.8 1.9 99 0.0 NW 48 67 26 36 1022.3 1024.6 4.2
27/07:00pm 1.9 -9.3 1.8 99 0.0 NW 50 67 27 36 1022.0 1024.3 4.2
27/06:30pm 2.2 -7.8 2.1 99 0.0 NW 44 59 24 32 1021.6 1023.9 4.2
27/06:01pm 2.4 -8.7 2.3 99 0.0 NW 50 69 27 37 1021.5 1023.8 4.2
27/06:00pm 2.4 -9.1 2.3 99 0.0 NW 52 69 28 37 1021.4 1023.7 4.2
27/05:30pm 2.4 -7.4 2.3 99 0.0 NW 43 61 23 33 1021.4 1023.7 4.2
27/05:08pm 2.5 -6.9 2.4 99 0.0 NW 41 59 22 32 1021.8 1024.0 3.8
27/05:00pm 2.6 -7.3 2.5 99 0.0 NW 44 59 24 32 1021.6 1023.9 3.8
27/04:30pm 2.6 -7.7 2.5 99 0.0 NW 46 59 25 32 1021.4 1023.7 3.6
27/04:00pm 2.3 -6.7 2.2 99 0.0 NW 39 59 21 32 1021.5 1023.8 3.4
27/03:30pm 2.3 -6.7 2.2 99 0.0 NW 39 59 21 32 1021.5 1023.8 3.4
27/03:20pm 2.1 -5.8 2.0 99 0.0 NW 33 52 18 28 1021.5 1023.8 3.2
27/03:00pm 2.0 -5.8 1.9 99 0.0 NW 32 44 17 24 1021.6 1023.9 3.2
27/02:37pm 2.0 -6.3 1.9 99 0.0 NW 35 54 19 29 1021.4 1023.7 3.0
27/02:30pm 1.9 -7.2 1.8 99 0.0 NW 39 54 21 29 1021.4 1023.7 3.0
27/02:03pm 1.9 -8.0 1.8 99 0.0 NW 43 61 23 33 1021.5 1023.8 2.8
27/02:00pm 1.9 -7.6 1.8 99 0.0 NW 41 54 22 29 1021.5 1023.8 2.8
27/01:30pm 2.1 -7.4 2.0 99 0.0 NW 41 59 22 32 1021.9 1024.1 2.8
27/01:26pm 2.2 -6.9 2.1 99 0.0 NW 39 57 21 31 1021.9 1024.1 2.8
27/01:00pm 2.1 -6.6 2.0 99 0.0 NW 37 52 20 28 1022.0 1024.3 2.4
27/12:41pm 2.4 -5.3 2.3 99 0.0 NW 32 52 17 28 1022.2 1024.5 2.0
27/12:30pm 2.2 -5.2 2.1 99 0.0 NW 30 43 16 23 1022.3 1024.6 1.6
27/12:00pm 1.3 -7.2 1.2 99 0.0 NW 35 48 19 26 1022.9 1025.2 1.0
27/11:30am 2.1 -6.2 2.0 99 0.0 NW 35 48 19 26 1023.0 1025.3 0.0
27/11:00am 1.7 -6.3 1.6 99 0.0 NW 33 41 18 22 1023.5 1025.8 0.0
27/10:30am 1.5 -6.5 1.4 99 0.0 NW 33 44 18 24 - - 0.0
27/10:00am 2.1 -5.7 2.0 99 0.0 WNW 32 46 17 25 - - 0.0
27/09:48am 2.1 -5.3 2.0 99 0.0 WNW 30 48 16 26 - - 0.0
27/09:30am 2.2 -6.6 1.6 96 0.3 NW 37 50 20 27 - - 0.0
27/09:00am 1.6 -7.3 0.7 94 0.4 NW 37 50 20 27 - - 0.0
27/08:30am 1.7 -6.4 -0.4 86 0.8 WNW 32 44 17 24 - - 0.0
27/08:00am 1.7 -5.6 -0.1 88 0.7 WNW 28 37 15 20 - - 0.0
27/07:30am 1.6 -5.5 -1.6 79 1.2 WNW 26 39 14 21 - - 0.0
27/07:00am 1.3 -5.4 -4.5 65 2.2 WNW 22 32 12 17 - - 0.0
27/06:30am 1.0 -5.3 -6.1 59 2.5 WNW 19 32 10 17 - - 0.0
27/06:00am 0.8 -5.7 -7.4 54 2.8 WNW 19 28 10 15 - - 0.0
27/05:30am 0.7 -5.2 -9.3 47 3.2 WNW 15 24 8 13 - - 0.0
27/05:00am 0.6 -5.8 -12.1 38 3.7 WNW 17 26 9 14 - - 0.0
27/04:30am 1.0 -5.5 -13.4 33 4.1 WNW 17 24 9 13 - - 0.0
27/04:00am 1.1 -5.0 -13.3 33 4.2 WNW 15 20 8 11 - - 0.0
27/03:30am 1.5 -4.9 -12.3 35 4.1 NW 17 22 9 12 - - 0.0
27/03:00am 2.1 -3.8 -10.4 39 4.0 NW 15 22 8 12 - - 0.0
27/02:30am 2.3 -4.3 -9.0 43 3.8 NW 19 26 10 14 1023.6 1025.9 0.0
27/02:00am 2.3 -5.0 -10.9 37 4.2 NW 22 30 12 16 1023.8 1026.1 0.0
27/01:30am 2.6 -5.2 -12.0 33 4.5 NW 24 37 13 20 1023.9 1026.3 0.0
27/01:00am 3.1 -3.9 -12.0 32 4.7 NW 20 30 11 16 1024.0 1026.4 0.0
27/12:30am 3.1 -3.9 -11.6 33 4.7 NNW 20 24 11 13 1024.3 1026.6 0.0
27/12:00am 2.4 -4.3 -10.8 37 4.2 NNW 19 20 10 11 1024.6 1027.0 0.0
 
Date/Time
EST
Temp
°C
App
Temp
°C
Dew
Point
Rel
Hum
%
Delta-T
°C
Wind Press
QNH
hPa
Press
MSL
hPa
Rain
since 9 am
mm
Dir
 
Spd
km/h
Gust
km/h
Spd
kts
Gust
kts
26/11:30pm 2.0 -4.2 -9.2 43 3.7 NNW 17 19 9 10 1024.7 1027.1 0.0
26/11:00pm 1.2 -4.5 -7.5 52 2.9 N 15 17 8 9 1024.8 1027.2 0.0
26/10:30pm 1.5 -4.5 -6.5 55 2.8 NNW 17 19 9 10 1025.1 1027.4 0.0
26/10:00pm 1.3 -4.5 -4.7 64 2.2 NNW 17 17 9 9 1025.3 1027.7 0.0
26/09:30pm 1.6 -2.2 -5.1 61 2.5 NW 6 9 3 5 1025.5 1027.9 0.0
26/09:00pm 2.8 -1.0 -5.6 54 3.1 W 6 7 3 4 1025.8 1028.1 0.0
26/08:30pm 2.2 -1.6 -5.9 55 2.9 W 6 7 3 4 1026.0 1028.4 0.0
26/08:00pm 2.2 -1.8 -7.4 49 3.3 WSW 6 9 3 5 1025.9 1028.3 0.0
26/07:30pm 2.5 -0.3 -6.8 50 3.3 CALM 0 4 0 2 1026.4 1028.9 0.0
26/07:00pm 2.0 -2.9 -6.6 53 3.0 NNW 11 15 6 8 1026.1 1028.5 0.0
26/06:30pm 2.7 -1.3 -7.7 46 3.6 NNW 6 13 3 7 1025.9 1028.3 0.0
26/06:00pm 1.4 -3.8 -6.2 57 2.7 NNW 13 13 7 7 1026.1 1028.5 0.0
26/05:30pm 1.9 -2.7 -7.7 49 3.3 N 9 11 5 6 1026.1 1028.5 0.0
26/05:00pm 2.5 -2.8 -7.6 47 3.5 NNE 13 15 7 8 1025.8 1028.1 0.0
26/04:30pm 2.7 -1.0 -8.0 45 3.7 NNE 4 9 2 5 1025.6 1028.0 0.0
26/04:00pm 3.9 -0.4 -12.1 30 5.1 E 6 7 3 4 1025.8 1028.1 0.0
26/03:30pm 4.2 0.7 -11.0 32 5.0 SSE 2 4 1 2 1025.5 1027.9 0.0
26/03:00pm 5.3 1.8 -10.4 31 5.0 SE 2 4 1 2 1025.6 1028.0 0.0
26/02:30pm 6.2 1.9 -10.9 28 5.5 E 6 11 3 6 1025.4 1027.8 0.0
26/02:00pm 6.4 2.3 -8.7 33 5.1 SE 6 11 3 6 1025.6 1028.0 0.0
26/01:30pm 6.6 2.2 -13.0 23 6.1 SSE 6 9 3 5 1026.0 1028.4 0.0
26/01:00pm 6.7 2.2 -14.6 20 6.3 SSE 6 11 3 6 1026.3 1028.7 0.0
26/12:30pm 7.6 3.2 -12.7 22 6.4 SSE 6 11 3 6 1026.6 1029.0 0.0
26/12:00pm 7.1 2.9 -17.0 16 6.8 SE 4 9 2 5 1027.0 1029.4 0.0
26/11:30am 7.2 3.0 -16.9 16 6.8 SSE 4 9 2 5 1027.7 1030.2 0.0
26/11:00am 7.0 2.8 -15.7 18 6.6 SE 4 9 2 5 1028.3 1030.7 0.0
26/10:30am 7.2 3.0 -16.2 17 6.8 SSE 4 11 2 6 1028.6 1031.1 0.0
26/10:00am 6.2 2.3 -19.3 14 7.0 SSE 2 6 1 3 1028.8 1031.3 0.0
26/09:30am 6.7 2.8 -18.9 14 7.3 NE 2 4 1 2 1028.8 1031.3 0.0
26/09:00am 5.9 1.5 -22.3 11 7.2 NE 4 7 2 4 1029.1 1031.6 0.0
26/08:30am 4.1 0.3 -15.7 22 5.8 NW 2 6 1 3 1029.2 1031.7 0.0
26/08:00am 1.6 -2.2 -15.8 26 4.7 NNW 2 6 1 3 1029.3 1031.8 0.0
26/07:30am -0.7 -5.5 -16.9 28 4.1 NW 7 11 4 6 1029.3 1031.8 0.0
26/07:00am 1.9 -3.1 -24.4 12 5.8 W 7 9 4 5 1029.1 1031.6 0.0
26/06:30am 0.7 -4.6 -20.9 18 5.1 WSW 9 9 5 5 1028.7 1031.2 0.0
26/06:00am -0.7 -4.9 -17.3 27 4.1 NW 4 9 2 5 1028.4 1030.9 0.0

Other Formats:

Comma delimited format used in spreadsheet applications
http://www.bom.gov.au/fwo/IDN60801/IDN60801.95909.axf

JavaScript Object Notation format (JSON) in row-major order
http://www.bom.gov.au/fwo/IDN60801/IDN60801.95909.json